createdAt,value
2022-11-06T00:02:20.795Z,9.12
2022-11-06T00:04:53.029Z,9.11
2022-11-06T00:07:24.907Z,9.11
2022-11-06T00:09:56.563Z,9.11
2022-11-06T00:12:28.218Z,9.11
2022-11-06T00:14:59.957Z,9.12
2022-11-06T00:17:31.828Z,9.12
2022-11-06T00:20:03.603Z,9.12
2022-11-06T00:22:36.990Z,9.12
2022-11-06T00:25:10.465Z,9.11
2022-11-06T00:27:43.817Z,9.09
2022-11-06T00:30:15.711Z,9.08
2022-11-06T00:32:47.312Z,9.07
2022-11-06T00:35:19.374Z,9.08
2022-11-06T00:37:51.228Z,9.08
2022-11-06T00:40:23.197Z,9.08
2022-11-06T00:42:59.051Z,9.09
2022-11-06T00:45:32.065Z,9.10
2022-11-06T00:48:03.829Z,9.09
2022-11-06T00:50:35.655Z,9.09
2022-11-06T00:53:07.424Z,9.09
2022-11-06T00:55:39.172Z,9.09
2022-11-06T00:58:11.366Z,9.08
2022-11-06T01:00:43.132Z,9.07
2022-11-06T01:03:14.889Z,9.05
2022-11-06T01:05:46.769Z,9.04
2022-11-06T01:08:18.685Z,9.03
2022-11-06T01:10:50.349Z,8.99
2022-11-06T01:13:22.044Z,8.98
2022-11-06T01:15:53.833Z,8.96
2022-11-06T01:18:25.638Z,8.95
2022-11-06T01:20:57.270Z,8.95
2022-11-06T01:23:29.019Z,8.95
2022-11-06T01:26:02.386Z,8.94
2022-11-06T01:28:35.591Z,8.92
2022-11-06T01:31:11.925Z,8.90
2022-11-06T01:33:43.982Z,8.89
2022-11-06T01:36:18.194Z,8.89
2022-11-06T01:38:52.141Z,8.88
2022-11-06T01:41:25.621Z,8.87
2022-11-06T01:43:59.518Z,8.86
2022-11-06T01:46:31.076Z,8.84
2022-11-06T01:49:06.566Z,8.80
2022-11-06T01:51:47.634Z,8.76
2022-11-06T01:54:21.452Z,8.73
2022-11-06T01:56:57.350Z,8.73
2022-11-06T01:59:34.111Z,8.73
2022-11-06T02:02:05.995Z,8.72
2022-11-06T02:04:42.438Z,8.72
2022-11-06T02:07:16.217Z,8.70
2022-11-06T02:09:46.877Z,8.71
2022-11-06T02:12:29.620Z,8.68
2022-11-06T02:15:11.545Z,8.67
2022-11-06T02:17:58.218Z,8.66
2022-11-06T02:20:40.911Z,8.64
2022-11-06T02:23:45.678Z,8.63
2022-11-06T02:26:38.832Z,8.60
2022-11-06T02:29:15.300Z,8.57
2022-11-06T02:31:50.266Z,8.56
2022-11-06T02:34:25.738Z,8.54
2022-11-06T02:37:02.253Z,8.53
2022-11-06T02:39:38.309Z,8.52
2022-11-06T02:42:13.494Z,8.51
2022-11-06T02:44:48.959Z,8.51
2022-11-06T02:47:24.232Z,8.51
2022-11-06T02:50:23.251Z,8.49
2022-11-06T02:53:01.913Z,8.48
2022-11-06T02:55:40.217Z,8.46
2022-11-06T02:58:18.644Z,8.45
2022-11-06T03:00:55.886Z,8.43
2022-11-06T03:03:31.141Z,8.41
2022-11-06T03:06:44.896Z,8.39
2022-11-06T03:09:11.783Z,8.34
2022-11-06T03:11:54.268Z,8.32
2022-11-06T03:14:35.813Z,8.29
2022-11-06T03:17:16.114Z,8.27
2022-11-06T03:20:01.728Z,8.24
2022-11-06T03:22:38.319Z,8.21
2022-11-06T03:25:21.286Z,8.20
2022-11-06T03:28:04.489Z,8.18
2022-11-06T03:30:41.155Z,8.14
2022-11-06T03:33:41.374Z,8.10
2022-11-06T03:36:19.774Z,8.05
2022-11-06T03:38:58.152Z,7.99
2022-11-06T03:41:39.199Z,7.93
2022-11-06T03:44:15.918Z,7.88
2022-11-06T03:46:54.652Z,7.84
2022-11-06T03:49:32.513Z,7.76
2022-11-06T03:52:09.440Z,7.70
2022-11-06T03:54:45.387Z,7.64
2022-11-06T03:57:22.895Z,7.57
2022-11-06T04:00:01.165Z,7.52
2022-11-06T04:02:59.169Z,7.46
2022-11-06T04:05:30.070Z,7.40
2022-11-06T04:08:21.887Z,7.34
2022-11-06T04:11:18.410Z,7.26
2022-11-06T04:13:58.421Z,7.23
2022-11-06T04:16:43.668Z,7.19
2022-11-06T04:19:36.010Z,7.14
2022-11-06T04:22:22.151Z,7.09
2022-11-06T04:25:23.391Z,7.03
2022-11-06T04:28:10.064Z,7.01
2022-11-06T04:30:52.396Z,6.95
2022-11-06T04:33:30.517Z,6.90
2022-11-06T04:36:17.195Z,6.86
2022-11-06T04:39:02.194Z,6.81
2022-11-06T04:41:40.873Z,6.76
2022-11-06T04:44:20.515Z,6.70
2022-11-06T04:47:01.075Z,6.66
2022-11-06T04:49:37.831Z,6.62
2022-11-06T04:52:16.570Z,6.58
2022-11-06T04:54:51.225Z,6.56
2022-11-06T04:57:25.182Z,6.54
2022-11-06T04:59:57.015Z,6.52
2022-11-06T05:02:28.953Z,6.49
2022-11-06T05:05:00.718Z,6.45
2022-11-06T05:07:32.481Z,6.40
2022-11-06T05:10:10.532Z,6.36
2022-11-06T05:12:44.823Z,6.31
2022-11-06T05:15:19.274Z,6.26
2022-11-06T05:17:51.006Z,6.24
2022-11-06T05:20:22.750Z,6.20
2022-11-06T05:23:01.544Z,6.16
2022-11-06T05:25:35.349Z,6.12
2022-11-06T05:28:11.375Z,6.09
2022-11-06T05:30:43.897Z,6.03
2022-11-06T05:33:15.782Z,5.99
2022-11-06T05:35:49.988Z,5.95
2022-11-06T05:38:22.367Z,5.92
2022-11-06T05:40:54.188Z,5.88
2022-11-06T05:43:26.105Z,5.85
2022-11-06T05:46:03.501Z,5.83
2022-11-06T05:48:58.021Z,5.82
2022-11-06T05:51:30.700Z,5.79
2022-11-06T05:54:29.471Z,5.74
2022-11-06T05:57:05.492Z,5.71
2022-11-06T05:59:37.357Z,5.69
2022-11-06T06:02:09.311Z,5.67
2022-11-06T06:04:41.288Z,5.65
2022-11-06T06:07:13.099Z,5.63
2022-11-06T06:09:45.378Z,5.61
2022-11-06T06:12:19.788Z,5.61
2022-11-06T06:14:53.488Z,5.60
2022-11-06T06:17:23.540Z,5.57
2022-11-06T06:19:58.164Z,5.55
2022-11-06T06:22:29.836Z,5.57
2022-11-06T06:25:23.163Z,5.60
2022-11-06T06:27:56.279Z,5.62
2022-11-06T06:30:28.173Z,5.68
2022-11-06T06:33:04.709Z,5.72
2022-11-06T06:35:39.294Z,5.79
2022-11-06T06:38:11.586Z,5.83
2022-11-06T06:40:43.786Z,5.86
2022-11-06T06:43:38.795Z,5.87
2022-11-06T06:46:08.756Z,5.83
2022-11-06T06:49:01.221Z,5.84
2022-11-06T06:51:33.021Z,5.85
2022-11-06T06:54:04.980Z,5.86
2022-11-06T06:56:36.879Z,5.88
2022-11-06T06:59:08.807Z,5.91
2022-11-06T07:01:43.494Z,5.96
2022-11-06T07:04:25.435Z,6.01
2022-11-06T07:06:57.454Z,6.06
2022-11-06T07:09:33.155Z,6.10
2022-11-06T07:12:08.227Z,6.12
2022-11-06T07:15:03.095Z,6.17
2022-11-06T07:17:32.509Z,6.23
2022-11-06T07:20:05.129Z,6.30
2022-11-06T07:22:37.767Z,6.43
2022-11-06T07:25:10.768Z,6.58
2022-11-06T07:27:42.553Z,6.69
2022-11-06T07:30:15.479Z,6.77
2022-11-06T07:32:52.255Z,6.89
2022-11-06T07:35:24.073Z,7.07
2022-11-06T07:37:55.772Z,7.29
2022-11-06T07:40:27.613Z,7.52
2022-11-06T07:43:06.305Z,7.66
2022-11-06T07:45:38.817Z,7.80
2022-11-06T07:48:10.644Z,8.16
2022-11-06T07:50:42.526Z,8.69
2022-11-06T07:53:14.591Z,9.35
2022-11-06T07:55:52.631Z,10.07
2022-11-06T07:58:25.483Z,10.89
2022-11-06T08:00:59.314Z,11.72
2022-11-06T08:03:31.940Z,12.38
2022-11-06T08:06:07.436Z,12.84
2022-11-06T08:08:39.713Z,13.68
2022-11-06T08:11:12.668Z,14.29
2022-11-06T08:13:44.596Z,14.51
2022-11-06T08:16:17.031Z,14.25
2022-11-06T08:18:48.884Z,14.35
2022-11-06T08:21:20.674Z,14.24
2022-11-06T08:23:52.373Z,13.88
2022-11-06T08:26:24.029Z,13.65
2022-11-06T08:28:57.666Z,13.46
2022-11-06T08:31:29.945Z,13.51
2022-11-06T08:34:01.646Z,13.48
2022-11-06T08:36:37.320Z,13.35
2022-11-06T08:39:09.110Z,13.26
2022-11-06T08:41:41.061Z,13.22
2022-11-06T08:44:12.820Z,13.13
2022-11-06T08:46:47.877Z,13.05
2022-11-06T08:49:23.341Z,12.99
2022-11-06T08:51:55.047Z,13.02
2022-11-06T08:54:26.747Z,13.31
2022-11-06T08:57:00.967Z,13.50
2022-11-06T08:59:33.548Z,13.48
2022-11-06T09:02:05.523Z,13.32
2022-11-06T09:04:41.325Z,12.98
2022-11-06T09:07:13.213Z,12.71
2022-11-06T09:09:44.857Z,12.50
2022-11-06T09:12:16.579Z,12.44
2022-11-06T09:14:48.201Z,12.48
2022-11-06T09:17:23.617Z,12.66
2022-11-06T09:19:55.494Z,13.04
2022-11-06T09:22:27.111Z,13.33
2022-11-06T09:25:03.621Z,13.33
2022-11-06T09:27:44.284Z,13.24
2022-11-06T09:30:19.326Z,13.23
2022-11-06T09:32:53.509Z,13.06
2022-11-06T09:35:27.653Z,12.96
2022-11-06T09:38:04.220Z,12.98
2022-11-06T09:40:38.879Z,13.07
2022-11-06T09:43:43.108Z,13.10
2022-11-06T09:46:24.583Z,13.11
2022-11-06T09:49:00.446Z,13.09
2022-11-06T09:51:47.302Z,13.05
2022-11-06T09:54:25.338Z,12.91
2022-11-06T09:57:00.882Z,12.78
2022-11-06T09:59:37.545Z,12.78
2022-11-06T10:02:27.590Z,12.94
2022-11-06T10:05:07.643Z,13.45
2022-11-06T10:07:42.773Z,14.12
2022-11-06T10:10:19.545Z,14.80
2022-11-06T10:13:17.929Z,15.38
2022-11-06T10:15:58.909Z,15.69
2022-11-06T10:18:45.621Z,15.69
2022-11-06T10:21:24.819Z,15.83
2022-11-06T10:24:00.237Z,16.34
2022-11-06T10:26:37.997Z,16.76
2022-11-06T10:29:27.953Z,17.04
2022-11-06T10:32:15.303Z,17.63
2022-11-06T10:34:51.144Z,18.47
2022-11-06T10:37:27.355Z,19.31
2022-11-06T10:40:01.102Z,20.10
2022-11-06T10:42:38.460Z,20.92
2022-11-06T10:45:18.546Z,21.67
2022-11-06T10:47:54.609Z,22.27
2022-11-06T10:50:34.722Z,22.58
2022-11-06T10:53:12.119Z,23.01
2022-11-06T10:56:19.907Z,22.89
2022-11-06T10:58:53.500Z,22.52
2022-11-06T11:01:26.905Z,22.11
2022-11-06T11:03:58.827Z,22.06
2022-11-06T11:06:30.561Z,22.09
2022-11-06T11:09:02.974Z,21.81
2022-11-06T11:11:36.592Z,21.52
2022-11-06T11:14:25.361Z,21.55
2022-11-06T11:17:02.354Z,21.76
2022-11-06T11:19:38.942Z,21.62
2022-11-06T11:22:22.101Z,21.14
2022-11-06T11:25:04.595Z,20.54
2022-11-06T11:27:44.092Z,19.94
2022-11-06T11:30:26.347Z,19.60
2022-11-06T11:32:59.480Z,19.18
2022-11-06T11:35:32.773Z,18.74
2022-11-06T11:38:12.978Z,18.32
2022-11-06T11:40:45.090Z,17.80
2022-11-06T11:43:24.782Z,17.43
2022-11-06T11:46:16.728Z,17.03
2022-11-06T11:48:50.146Z,16.71
2022-11-06T11:51:37.629Z,16.46
2022-11-06T11:54:20.556Z,16.21
2022-11-06T11:57:05.601Z,15.98
2022-11-06T11:59:47.990Z,15.74
2022-11-06T12:02:27.925Z,15.54
2022-11-06T12:05:03.073Z,15.42
2022-11-06T12:07:41.997Z,15.30
2022-11-06T12:10:27.896Z,15.12
2022-11-06T12:13:01.591Z,14.94
2022-11-06T12:15:40.849Z,14.83
2022-11-06T12:18:17.434Z,14.70
2022-11-06T12:20:56.769Z,14.58
2022-11-06T12:23:43.761Z,14.46
2022-11-06T12:26:26.235Z,14.37
2022-11-06T12:29:06.220Z,14.24
2022-11-06T12:31:44.199Z,14.14
2022-11-06T12:34:22.954Z,14.06
2022-11-06T12:37:09.631Z,14.00
2022-11-06T12:39:45.129Z,13.96
2022-11-06T12:42:18.762Z,13.91
2022-11-06T12:44:50.810Z,13.85
2022-11-06T12:47:38.205Z,13.81
2022-11-06T12:50:29.664Z,13.69
2022-11-06T12:53:14.052Z,13.56
2022-11-06T12:55:56.386Z,13.48
2022-11-06T12:58:46.314Z,13.42
2022-11-06T13:01:26.949Z,13.34
2022-11-06T13:04:13.310Z,13.29
2022-11-06T13:07:21.709Z,13.26
2022-11-06T13:10:04.513Z,13.17
2022-11-06T13:12:45.566Z,13.10
2022-11-06T13:15:29.245Z,13.00
2022-11-06T13:18:08.738Z,12.93
2022-11-06T13:20:51.298Z,12.81
2022-11-06T13:23:30.100Z,12.70
2022-11-06T13:26:11.893Z,12.60
2022-11-06T13:28:47.320Z,12.54
2022-11-06T13:31:23.378Z,12.50
2022-11-06T13:33:59.637Z,12.48
2022-11-06T13:36:36.827Z,12.45
2022-11-06T13:39:16.809Z,12.40
2022-11-06T13:41:48.489Z,12.38
2022-11-06T13:44:22.098Z,12.34
2022-11-06T13:46:59.561Z,12.29
2022-11-06T13:49:39.900Z,12.21
2022-11-06T13:52:16.701Z,12.10
2022-11-06T13:55:06.752Z,12.02
2022-11-06T13:57:54.181Z,11.94
2022-11-06T14:00:29.438Z,11.83
2022-11-06T14:03:22.699Z,11.74
2022-11-06T14:06:02.840Z,11.68
2022-11-06T14:08:40.265Z,11.64
2022-11-06T14:11:17.670Z,11.60
2022-11-06T14:14:03.543Z,11.58
2022-11-06T14:16:38.226Z,11.55
2022-11-06T14:19:23.362Z,11.52
2022-11-06T14:21:58.450Z,11.50
2022-11-06T14:24:35.914Z,11.47
2022-11-06T14:27:11.644Z,11.44
2022-11-06T14:29:58.577Z,11.40
2022-11-06T14:32:42.544Z,11.37
2022-11-06T14:35:51.495Z,11.33
2022-11-06T14:38:34.806Z,11.29
2022-11-06T14:41:46.962Z,11.27
2022-11-06T14:44:40.987Z,11.19
2022-11-06T14:47:29.204Z,11.13
2022-11-06T14:50:05.837Z,11.08
2022-11-06T14:52:48.120Z,11.02
2022-11-06T14:55:35.750Z,10.99
2022-11-06T14:58:19.920Z,10.95
2022-11-06T15:00:55.094Z,10.89
2022-11-06T15:03:33.388Z,10.78
2022-11-06T15:06:22.658Z,10.73
2022-11-06T15:09:03.501Z,10.63
2022-11-06T15:11:59.834Z,10.53
2022-11-06T15:15:00.363Z,10.42
2022-11-06T15:17:36.440Z,10.31
2022-11-06T15:20:31.784Z,10.23
2022-11-06T15:23:24.786Z,10.16
2022-11-06T15:26:07.061Z,10.10
2022-11-06T15:28:47.453Z,10.03
2022-11-06T15:31:21.788Z,9.96
2022-11-06T15:33:59.924Z,9.86
2022-11-06T15:36:38.659Z,9.75
2022-11-06T15:42:11.455Z,9.65
2022-11-06T15:44:45.873Z,9.57
2022-11-06T15:47:29.563Z,9.48
2022-11-06T15:50:17.442Z,9.42
2022-11-06T15:52:51.044Z,9.35
2022-11-06T15:55:31.236Z,9.27
2022-11-06T15:58:11.965Z,9.20
2022-11-06T16:00:44.432Z,9.14
2022-11-06T16:03:19.401Z,9.09
2022-11-06T16:05:51.899Z,9.04
2022-11-06T16:08:25.757Z,9.00
2022-11-06T16:10:57.198Z,8.94
2022-11-06T16:13:29.811Z,8.85
2022-11-06T16:16:02.791Z,8.79
2022-11-06T16:18:44.077Z,8.73
2022-11-06T16:21:19.331Z,8.69
2022-11-06T16:23:54.200Z,8.66
2022-11-06T16:26:29.261Z,8.64
2022-11-06T16:29:02.281Z,8.59
2022-11-06T16:31:34.081Z,8.57
2022-11-06T16:34:07.394Z,8.55
2022-11-06T16:36:59.754Z,8.53
2022-11-06T16:39:52.905Z,8.49
2022-11-06T16:42:30.362Z,8.46
2022-11-06T16:45:23.154Z,8.44
2022-11-06T16:48:25.461Z,8.40
2022-11-06T16:50:59.576Z,8.37
2022-11-06T16:53:34.567Z,8.34
2022-11-06T16:56:08.840Z,8.31
2022-11-06T16:58:53.084Z,8.26
2022-11-06T17:01:26.950Z,8.22
2022-11-06T17:04:02.737Z,8.20
2022-11-06T17:06:36.770Z,8.17
2022-11-06T17:09:30.932Z,8.14
2022-11-06T17:12:04.146Z,8.10
2022-11-06T17:14:35.850Z,8.06
2022-11-06T17:17:07.521Z,8.04
2022-11-06T17:19:39.182Z,8.01
2022-11-06T17:22:13.100Z,7.97
2022-11-06T17:24:44.831Z,7.94
2022-11-06T17:27:16.688Z,7.91
2022-11-06T17:29:48.490Z,7.88
2022-11-06T17:32:20.138Z,7.83
2022-11-06T17:34:51.778Z,7.80
2022-11-06T17:37:23.436Z,7.76
2022-11-06T17:39:55.227Z,7.71
2022-11-06T17:42:26.977Z,7.67
2022-11-06T17:44:58.712Z,7.62
2022-11-06T17:47:30.422Z,7.58
2022-11-06T17:50:02.313Z,7.54
2022-11-06T17:52:35.070Z,7.50
2022-11-06T17:55:07.965Z,7.47
2022-11-06T17:57:39.634Z,7.43
2022-11-06T18:00:14.667Z,7.39
2022-11-06T18:03:01.052Z,7.34
2022-11-06T18:05:35.314Z,7.30
2022-11-06T18:08:07.234Z,7.26
2022-11-06T18:10:39.108Z,7.23
2022-11-06T18:13:10.901Z,7.20
2022-11-06T18:15:43.769Z,7.16
2022-11-06T18:18:15.932Z,7.12
2022-11-06T18:20:48.477Z,7.07
2022-11-06T18:23:20.202Z,7.02
2022-11-06T18:25:58.029Z,6.97
2022-11-06T18:28:29.693Z,6.92
2022-11-06T18:31:01.974Z,6.88
2022-11-06T18:33:34.010Z,6.84
2022-11-06T18:36:08.262Z,6.80
2022-11-06T18:38:41.106Z,6.78
2022-11-06T18:41:15.611Z,6.75
2022-11-06T18:43:47.345Z,6.69
2022-11-06T18:46:20.108Z,6.65
2022-11-06T18:48:51.815Z,6.62
2022-11-06T18:51:34.669Z,6.59
2022-11-06T18:54:09.630Z,6.56
2022-11-06T18:56:41.499Z,6.54
2022-11-06T18:59:19.656Z,6.51
2022-11-06T19:01:51.625Z,6.50
2022-11-06T19:04:23.764Z,6.48
2022-11-06T19:06:57.427Z,6.46
2022-11-06T19:09:29.423Z,6.43
2022-11-06T19:12:01.053Z,6.41
2022-11-06T19:14:32.759Z,6.41
2022-11-06T19:17:05.197Z,6.38
2022-11-06T19:19:36.852Z,6.37
2022-11-06T19:22:10.552Z,6.35
2022-11-06T19:24:41.703Z,6.34
2022-11-06T19:27:13.652Z,6.27
2022-11-06T19:29:45.292Z,6.25
2022-11-06T19:32:18.178Z,6.24
2022-11-06T19:34:49.889Z,6.23
2022-11-06T19:37:21.697Z,6.21
2022-11-06T19:39:54.049Z,6.19
2022-11-06T19:42:25.940Z,6.18
2022-11-06T19:44:57.669Z,6.16
2022-11-06T19:47:32.286Z,6.15
2022-11-06T19:50:04.175Z,6.13
2022-11-06T19:52:41.532Z,6.12
2022-11-06T19:55:25.867Z,6.10
2022-11-06T19:58:01.475Z,6.08
2022-11-06T20:00:31.573Z,6.08
2022-11-06T20:03:03.340Z,6.06
2022-11-06T20:05:38.270Z,6.09
2022-11-06T20:08:11.175Z,6.13
2022-11-06T20:10:43.136Z,6.19
2022-11-06T20:13:14.980Z,6.23
2022-11-06T20:15:47.034Z,6.30
2022-11-06T20:18:18.840Z,6.36
2022-11-06T20:20:54.101Z,6.44
2022-11-06T20:23:25.880Z,6.50
2022-11-06T20:25:57.597Z,6.58
2022-11-06T20:28:29.875Z,6.66
2022-11-06T20:31:05.119Z,6.74
2022-11-06T20:33:37.382Z,6.82
2022-11-06T20:36:21.146Z,6.87
2022-11-06T20:38:54.442Z,6.94
2022-11-06T20:41:27.627Z,7.02
2022-11-06T20:43:59.732Z,7.09
2022-11-06T20:46:31.730Z,7.16
2022-11-06T20:49:03.630Z,7.23
2022-11-06T20:51:48.307Z,7.31
2022-11-06T20:54:26.185Z,7.37
2022-11-06T20:56:57.983Z,7.44
2022-11-06T20:59:31.128Z,7.49
2022-11-06T21:02:02.968Z,7.53
2022-11-06T21:04:34.739Z,7.56
2022-11-06T21:07:06.417Z,7.62
2022-11-06T21:09:38.065Z,7.66
2022-11-06T21:12:11.519Z,7.70
2022-11-06T21:14:43.323Z,7.76
2022-11-06T21:17:14.950Z,7.80
2022-11-06T21:19:46.801Z,7.84
2022-11-06T21:22:18.414Z,7.90
2022-11-06T21:24:50.033Z,7.95
2022-11-06T21:27:21.818Z,8.00
2022-11-06T21:29:55.914Z,8.04
2022-11-06T21:32:27.776Z,8.08
2022-11-06T21:34:59.449Z,8.12
2022-11-06T21:37:33.742Z,8.16
2022-11-06T21:40:07.421Z,8.19
2022-11-06T21:42:39.082Z,8.21
2022-11-06T21:45:15.001Z,8.25
2022-11-06T21:47:46.961Z,8.26
2022-11-06T21:50:28.196Z,8.31
2022-11-06T21:53:19.166Z,8.34
2022-11-06T21:56:00.009Z,8.35
2022-11-06T21:58:32.022Z,8.38
2022-11-06T22:01:07.378Z,8.41
2022-11-06T22:03:40.367Z,8.45
2022-11-06T22:06:14.325Z,8.47
2022-11-06T22:08:48.556Z,8.45
2022-11-06T22:11:21.867Z,8.46
2022-11-06T22:13:54.828Z,8.47
2022-11-06T22:16:29.171Z,8.50
2022-11-06T22:19:01.486Z,8.51
2022-11-06T22:21:34.173Z,8.51
2022-11-06T22:24:07.402Z,8.51
2022-11-06T22:26:40.437Z,8.49
2022-11-06T22:29:14.834Z,8.49
2022-11-06T22:31:46.484Z,8.51
2022-11-06T22:34:18.474Z,8.55
2022-11-06T22:36:50.247Z,8.57
2022-11-06T22:39:24.121Z,8.61
2022-11-06T22:41:56.296Z,8.63
2022-11-06T22:44:28.439Z,8.64
2022-11-06T22:47:00.249Z,8.65
2022-11-06T22:49:32.050Z,8.67
2022-11-06T22:52:03.667Z,8.69
2022-11-06T22:54:35.314Z,8.71
2022-11-06T22:57:07.126Z,8.72
2022-11-06T22:59:39.157Z,8.72
2022-11-06T23:02:10.836Z,8.73
2022-11-06T23:04:42.842Z,8.73
2022-11-06T23:07:14.540Z,8.73
2022-11-06T23:09:46.309Z,8.76
2022-11-06T23:12:18.420Z,8.77
2022-11-06T23:14:50.091Z,8.76
2022-11-06T23:17:21.917Z,8.74
2022-11-06T23:19:55.653Z,8.73
2022-11-06T23:22:39.754Z,8.71
2022-11-06T23:25:13.215Z,8.67
2022-11-06T23:27:49.592Z,8.63
2022-11-06T23:30:22.392Z,8.56
2022-11-06T23:32:54.344Z,8.51
2022-11-06T23:35:31.949Z,8.47
2022-11-06T23:38:04.781Z,8.45
2022-11-06T23:40:36.510Z,8.43
2022-11-06T23:43:08.271Z,8.41
2022-11-06T23:45:52.251Z,8.41
2022-11-06T23:48:24.119Z,8.42
2022-11-06T23:50:56.781Z,8.44
2022-11-06T23:53:28.564Z,8.46
2022-11-06T23:56:00.207Z,8.46
2022-11-06T23:58:31.857Z,8.47
